Carvers, Nevada
Current Conditions -  °F | °C
As of 1:56 AM on Thursday 23 Oct 2014 (Local Time) from KTPH Reporting Station
Clear Clear  
Wind Chill: 39°   Ceiling: Unl
Heat Index: 44°   Visibility: 10mi
Dew Point: 14°   Wind: 9mph
Humidity: 30%   Direction: 360°N
Pressure: 30.19"   Gusts: NA
Location:  38.8172°N, 117.224°W
Report Text: KTPH 230856Z AUTO 36008KT 10SM CLR 07/M10 A3019 RMK AO2 SLP181 T00671100 55003
Loading
Personal Weather Stations






























Interactive Weather Map
Tropical Storm Tracking
New forecast layout! Learn more

10-Day Weather Forecast

Advertisements
Track Severe Weather on mobile